sensor_id;sensor_type;location;lat;lon;timestamp;pressure;altitude;pressure_sealevel;temperature;humidity
54588;BME280;40484;50.198;19.576;2023-04-10T00:03:17;102441.20;;;11.28;58.25
54588;BME280;40484;50.198;19.576;2023-04-10T00:08:23;102448.44;;;11.36;58.06
54588;BME280;40484;50.198;19.576;2023-04-10T00:13:25;102444.66;;;11.16;58.61
54588;BME280;40484;50.198;19.576;2023-04-10T00:18:26;102438.93;;;10.84;59.55
54588;BME280;40484;50.198;19.576;2023-04-10T00:23:29;102433.16;;;10.95;59.22
54588;BME280;40484;50.198;19.576;2023-04-10T00:28:32;102429.86;;;10.87;59.51
54588;BME280;40484;50.198;19.576;2023-04-10T00:33:33;102443.14;;;10.53;60.50
54588;BME280;40484;50.198;19.576;2023-04-10T00:38:35;102438.93;;;10.68;60.14
54588;BME280;40484;50.198;19.576;2023-04-10T00:43:37;102437.65;;;10.66;60.37
54588;BME280;40484;50.198;19.576;2023-04-10T00:48:39;102436.87;;;10.53;60.79
54588;BME280;40484;50.198;19.576;2023-04-10T00:53:41;102437.41;;;10.49;61.07
54588;BME280;40484;50.198;19.576;2023-04-10T00:59:10;102426.87;;;10.68;60.67
54588;BME280;40484;50.198;19.576;2023-04-10T01:04:13;102425.89;;;10.62;60.82
54588;BME280;40484;50.198;19.576;2023-04-10T01:14:37;102423.56;;;10.22;62.08
54588;BME280;40484;50.198;19.576;2023-04-10T01:29:59;102433.01;;;10.47;61.41
54588;BME280;40484;50.198;19.576;2023-04-10T01:35:04;102433.51;;;10.43;61.62
54588;BME280;40484;50.198;19.576;2023-04-10T01:40:07;102432.52;;;10.37;61.67
54588;BME280;40484;50.198;19.576;2023-04-10T01:45:11;102435.34;;;10.33;61.88
54588;BME280;40484;50.198;19.576;2023-04-10T01:50:13;102429.08;;;10.25;62.37
54588;BME280;40484;50.198;19.576;2023-04-10T01:55:15;102430.15;;;10.41;61.93
54588;BME280;40484;50.198;19.576;2023-04-10T02:00:17;102420.42;;;10.43;61.95
54588;BME280;40484;50.198;19.576;2023-04-10T02:06:09;102428.89;;;10.58;61.72
54588;BME280;40484;50.198;19.576;2023-04-10T02:11:29;102435.25;;;10.54;61.83
54588;BME280;40484;50.198;19.576;2023-04-10T02:16:28;102438.07;;;10.42;62.17
54588;BME280;40484;50.198;19.576;2023-04-10T02:21:31;102434.08;;;10.56;61.79
54588;BME280;40484;50.198;19.576;2023-04-10T02:26:47;102433.08;;;10.43;62.27
54588;BME280;40484;50.198;19.576;2023-04-10T02:31:48;102434.45;;;10.39;62.33
54588;BME280;40484;50.198;19.576;2023-04-10T02:36:50;102430.68;;;10.23;62.79
54588;BME280;40484;50.198;19.576;2023-04-10T02:41:52;102428.47;;;10.26;62.90
54588;BME280;40484;50.198;19.576;2023-04-10T02:46:54;102422.25;;;10.41;62.49
54588;BME280;40484;50.198;19.576;2023-04-10T02:51:55;102421.94;;;10.45;62.52
54588;BME280;40484;50.198;19.576;2023-04-10T02:56:57;102422.16;;;10.30;63.08
54588;BME280;40484;50.198;19.576;2023-04-10T03:01:59;102421.13;;;10.54;62.51
54588;BME280;40484;50.198;19.576;2023-04-10T03:07:26;102429.58;;;10.84;61.93
54588;BME280;40484;50.198;19.576;2023-04-10T03:12:28;102423.01;;;10.88;61.79
54588;BME280;40484;50.198;19.576;2023-04-10T03:17:29;102423.56;;;10.85;61.85
54588;BME280;40484;50.198;19.576;2023-04-10T03:22:31;102427.48;;;10.67;62.30
54588;BME280;40484;50.198;19.576;2023-04-10T03:27:33;102420.55;;;10.72;62.27
54588;BME280;40484;50.198;19.576;2023-04-10T03:32:34;102432.85;;;10.57;62.59
54588;BME280;40484;50.198;19.576;2023-04-10T03:37:36;102443.96;;;10.61;62.41
54588;BME280;40484;50.198;19.576;2023-04-10T03:42:38;102436.46;;;10.53;62.68
54588;BME280;40484;50.198;19.576;2023-04-10T03:47:39;102437.07;;;10.52;62.48
54588;BME280;40484;50.198;19.576;2023-04-10T03:52:41;102430.20;;;10.68;62.11
54588;BME280;40484;50.198;19.576;2023-04-10T03:57:42;102434.05;;;10.72;61.96
54588;BME280;40484;50.198;19.576;2023-04-10T04:02:44;102433.58;;;10.70;61.94
54588;BME280;40484;50.198;19.576;2023-04-10T04:07:45;102436.38;;;10.57;62.37
54588;BME280;40484;50.198;19.576;2023-04-10T04:12:47;102432.63;;;10.56;62.25
54588;BME280;40484;50.198;19.576;2023-04-10T04:17:48;102430.49;;;10.63;62.18
54588;BME280;40484;50.198;19.576;2023-04-10T04:22:50;102436.05;;;10.60;62.31
54588;BME280;40484;50.198;19.576;2023-04-10T04:27:51;102439.86;;;10.39;62.90
54588;BME280;40484;50.198;19.576;2023-04-10T04:32:53;102439.38;;;10.37;62.94
54588;BME280;40484;50.198;19.576;2023-04-10T04:37:54;102437.35;;;10.31;62.98
54588;BME280;40484;50.198;19.576;2023-04-10T04:42:56;102436.01;;;10.21;63.30
54588;BME280;40484;50.198;19.576;2023-04-10T04:47:57;102440.54;;;10.34;63.02
54588;BME280;40484;50.198;19.576;2023-04-10T04:52:59;102445.05;;;10.39;62.97
54588;BME280;40484;50.198;19.576;2023-04-10T04:58:26;102452.97;;;10.47;62.83
54588;BME280;40484;50.198;19.576;2023-04-10T05:03:28;102457.49;;;10.46;62.82
54588;BME280;40484;50.198;19.576;2023-04-10T05:08:29;102468.57;;;10.40;62.81
54588;BME280;40484;50.198;19.576;2023-04-10T05:13:31;102479.91;;;10.15;63.75
54588;BME280;40484;50.198;19.576;2023-04-10T05:18:33;102472.13;;;10.34;63.21
54588;BME280;40484;50.198;19.576;2023-04-10T05:23:35;102477.69;;;10.39;63.38
54588;BME280;40484;50.198;19.576;2023-04-10T05:28:37;102475.82;;;10.38;63.37
54588;BME280;40484;50.198;19.576;2023-04-10T05:33:38;102474.78;;;10.39;63.28
54588;BME280;40484;50.198;19.576;2023-04-10T05:38:40;102481.73;;;10.66;62.72
54588;BME280;40484;50.198;19.576;2023-04-10T05:43:41;102486.94;;;10.66;62.60
54588;BME280;40484;50.198;19.576;2023-04-10T05:48:43;102494.87;;;10.44;63.10
54588;BME280;40484;50.198;19.576;2023-04-10T05:53:44;102504.87;;;10.76;62.50
54588;BME280;40484;50.198;19.576;2023-04-10T05:58:46;102503.19;;;11.26;61.54
54588;BME280;40484;50.198;19.576;2023-04-10T06:03:47;102486.48;;;11.06;61.55
54588;BME280;40484;50.198;19.576;2023-04-10T06:08:48;102490.02;;;10.81;61.98
54588;BME280;40484;50.198;19.576;2023-04-10T06:13:50;102487.72;;;10.73;62.27
54588;BME280;40484;50.198;19.576;2023-04-10T06:18:52;102485.46;;;10.82;62.31
54588;BME280;40484;50.198;19.576;2023-04-10T06:23:54;102486.44;;;10.80;62.57
54588;BME280;40484;50.198;19.576;2023-04-10T06:28:56;102486.13;;;10.76;62.88
54588;BME280;40484;50.198;19.576;2023-04-10T06:33:57;102482.16;;;10.50;63.72
54588;BME280;40484;50.198;19.576;2023-04-10T06:38:58;102487.93;;;10.64;63.51
54588;BME280;40484;50.198;19.576;2023-04-10T06:44:01;102489.76;;;10.63;63.87
54588;BME280;40484;50.198;19.576;2023-04-10T06:49:27;102493.02;;;10.85;63.49
54588;BME280;40484;50.198;19.576;2023-04-10T06:54:28;102492.70;;;10.88;63.47
54588;BME280;40484;50.198;19.576;2023-04-10T06:59:30;102491.10;;;11.08;63.09
54588;BME280;40484;50.198;19.576;2023-04-10T07:04:33;102482.69;;;11.05;63.10
54588;BME280;40484;50.198;19.576;2023-04-10T07:09:36;102475.02;;;10.97;63.55
54588;BME280;40484;50.198;19.576;2023-04-10T07:14:38;102484.94;;;10.86;64.02
54588;BME280;40484;50.198;19.576;2023-04-10T07:19:39;102496.98;;;11.10;63.40
54588;BME280;40484;50.198;19.576;2023-04-10T07:24:41;102496.50;;;11.08;63.51
54588;BME280;40484;50.198;19.576;2023-04-10T07:29:42;102511.46;;;10.99;63.75
54588;BME280;40484;50.198;19.576;2023-04-10T07:34:44;102509.50;;;11.03;63.57
54588;BME280;40484;50.198;19.576;2023-04-10T07:39:45;102514.73;;;11.05;63.70
54588;BME280;40484;50.198;19.576;2023-04-10T07:44:47;102513.63;;;11.19;63.26
54588;BME280;40484;50.198;19.576;2023-04-10T07:49:48;102506.82;;;11.22;63.17
54588;BME280;40484;50.198;19.576;2023-04-10T07:54:50;102505.03;;;11.25;63.21
54588;BME280;40484;50.198;19.576;2023-04-10T07:59:51;102510.09;;;11.02;63.78
54588;BME280;40484;50.198;19.576;2023-04-10T08:04:53;102512.70;;;11.06;64.11
54588;BME280;40484;50.198;19.576;2023-04-10T08:09:54;102513.22;;;11.19;64.31
54588;BME280;40484;50.198;19.576;2023-04-10T08:14:56;102515.64;;;11.15;64.39
54588;BME280;40484;50.198;19.576;2023-04-10T08:19:58;102521.53;;;11.19;64.17
54588;BME280;40484;50.198;19.576;2023-04-10T08:25:00;102497.05;;;11.22;64.35
54588;BME280;40484;50.198;19.576;2023-04-10T08:30:01;102500.94;;;11.20;64.47
54588;BME280;40484;50.198;19.576;2023-04-10T08:35:31;102500.13;;;11.39;64.34
54588;BME280;40484;50.198;19.576;2023-04-10T08:40:35;102499.35;;;11.40;64.24
54588;BME280;40484;50.198;19.576;2023-04-10T08:45:36;102499.63;;;11.43;64.49
54588;BME280;40484;50.198;19.576;2023-04-10T08:50:40;102499.66;;;11.54;64.05
54588;BME280;40484;50.198;19.576;2023-04-10T08:55:41;102504.09;;;11.56;64.18
54588;BME280;40484;50.198;19.576;2023-04-10T09:00:43;102500.30;;;11.63;64.21
54588;BME280;40484;50.198;19.576;2023-04-10T09:05:45;102500.94;;;11.84;63.84
54588;BME280;40484;50.198;19.576;2023-04-10T09:10:46;102500.69;;;11.89;64.07
54588;BME280;40484;50.198;19.576;2023-04-10T09:15:55;102492.79;;;12.01;63.74
54588;BME280;40484;50.198;19.576;2023-04-10T09:21:05;102491.41;;;12.15;63.43
54588;BME280;40484;50.198;19.576;2023-04-10T09:26:00;102500.11;;;11.84;64.21
54588;BME280;40484;50.198;19.576;2023-04-10T09:31:03;102494.16;;;12.07;63.83
54588;BME280;40484;50.198;19.576;2023-04-10T09:36:11;102488.41;;;12.42;63.10
54588;BME280;40484;50.198;19.576;2023-04-10T09:41:09;102488.91;;;12.59;62.75
54588;BME280;40484;50.198;19.576;2023-04-10T09:46:21;102483.02;;;12.69;62.13
54588;BME280;40484;50.198;19.576;2023-04-10T09:51:34;102483.18;;;12.89;62.09
54588;BME280;40484;50.198;19.576;2023-04-10T09:56:22;102474.93;;;12.95;61.89
54588;BME280;40484;50.198;19.576;2023-04-10T10:01:51;102471.23;;;12.98;61.85
54588;BME280;40484;50.198;19.576;2023-04-10T10:06:52;102472.35;;;13.16;61.49
54588;BME280;40484;50.198;19.576;2023-04-10T10:11:54;102459.00;;;13.17;61.01
54588;BME280;40484;50.198;19.576;2023-04-10T10:16:58;102457.46;;;13.25;60.55
54588;BME280;40484;50.198;19.576;2023-04-10T10:22:00;102463.23;;;13.08;60.03
54588;BME280;40484;50.198;19.576;2023-04-10T10:27:03;102460.72;;;13.48;59.82
54588;BME280;40484;50.198;19.576;2023-04-10T10:32:07;102462.59;;;13.94;59.45
54588;BME280;40484;50.198;19.576;2023-04-10T10:37:10;102455.09;;;13.98;58.52
54588;BME280;40484;50.198;19.576;2023-04-10T10:42:41;102450.04;;;13.95;58.69
54588;BME280;40484;50.198;19.576;2023-04-10T10:47:52;102444.46;;;13.83;58.23
54588;BME280;40484;50.198;19.576;2023-04-10T10:52:55;102445.22;;;13.76;58.09
54588;BME280;40484;50.198;19.576;2023-04-10T10:57:58;102437.96;;;13.98;58.48
54588;BME280;40484;50.198;19.576;2023-04-10T11:08:41;102415.60;;;14.61;56.80
54588;BME280;40484;50.198;19.576;2023-04-10T11:19:03;102413.17;;;14.69;55.60
54588;BME280;40484;50.198;19.576;2023-04-10T11:24:05;102403.04;;;14.85;55.45
54588;BME280;40484;50.198;19.576;2023-04-10T11:34:19;102401.63;;;14.68;55.92
54588;BME280;40484;50.198;19.576;2023-04-10T11:39:20;102393.73;;;15.05;55.71
54588;BME280;40484;50.198;19.576;2023-04-10T11:44:27;102384.74;;;14.73;54.85
54588;BME280;40484;50.198;19.576;2023-04-10T11:49:32;102371.15;;;15.05;53.94
54588;BME280;40484;50.198;19.576;2023-04-10T11:54:34;102372.58;;;15.40;53.25
54588;BME280;40484;50.198;19.576;2023-04-10T11:59:37;102362.25;;;15.71;52.45
54588;BME280;40484;50.198;19.576;2023-04-10T12:04:39;102351.03;;;16.14;52.20
54588;BME280;40484;50.198;19.576;2023-04-10T12:09:41;102350.41;;;16.45;50.88
54588;BME280;40484;50.198;19.576;2023-04-10T12:14:43;102343.27;;;16.29;50.36
54588;BME280;40484;50.198;19.576;2023-04-10T12:20:09;102331.96;;;16.32;49.63
54588;BME280;40484;50.198;19.576;2023-04-10T12:25:11;102331.30;;;16.56;49.24
54588;BME280;40484;50.198;19.576;2023-04-10T12:30:13;102312.15;;;17.01;48.74
54588;BME280;40484;50.198;19.576;2023-04-10T12:35:14;102300.55;;;17.97;46.83
54588;BME280;40484;50.198;19.576;2023-04-10T12:40:16;102295.22;;;17.78;43.67
54588;BME280;40484;50.198;19.576;2023-04-10T12:45:17;102292.94;;;17.64;43.74
54588;BME280;40484;50.198;19.576;2023-04-10T12:50:19;102289.72;;;17.81;43.67
54588;BME280;40484;50.198;19.576;2023-04-10T12:55:21;102279.32;;;17.55;43.64
54588;BME280;40484;50.198;19.576;2023-04-10T13:00:23;102269.99;;;17.31;42.78
54588;BME280;40484;50.198;19.576;2023-04-10T13:05:25;102265.08;;;17.50;43.27
54588;BME280;40484;50.198;19.576;2023-04-10T13:10:27;102259.47;;;17.40;42.87
54588;BME280;40484;50.198;19.576;2023-04-10T13:15:29;102253.73;;;17.43;43.11
54588;BME280;40484;50.198;19.576;2023-04-10T13:20:30;102238.20;;;17.43;43.55
54588;BME280;40484;50.198;19.576;2023-04-10T13:25:33;102241.48;;;17.56;43.15
54588;BME280;40484;50.198;19.576;2023-04-10T13:30:36;102240.62;;;17.60;43.30
54588;BME280;40484;50.198;19.576;2023-04-10T13:35:38;102229.26;;;17.59;43.17
54588;BME280;40484;50.198;19.576;2023-04-10T13:40:42;102223.91;;;17.45;42.79
54588;BME280;40484;50.198;19.576;2023-04-10T13:45:44;102215.77;;;17.65;42.32
54588;BME280;40484;50.198;19.576;2023-04-10T13:50:45;102204.34;;;18.06;41.21
54588;BME280;40484;50.198;19.576;2023-04-10T13:55:47;102193.90;;;18.39;39.46
54588;BME280;40484;50.198;19.576;2023-04-10T14:01:16;102182.15;;;18.75;40.29
54588;BME280;40484;50.198;19.576;2023-04-10T14:06:18;102175.29;;;18.27;39.16
54588;BME280;40484;50.198;19.576;2023-04-10T14:11:20;102179.23;;;17.87;40.96
54588;BME280;40484;50.198;19.576;2023-04-10T14:16:22;102185.09;;;17.64;43.60
54588;BME280;40484;50.198;19.576;2023-04-10T14:21:24;102195.61;;;17.32;44.58
54588;BME280;40484;50.198;19.576;2023-04-10T14:26:27;102181.01;;;17.14;44.38
54588;BME280;40484;50.198;19.576;2023-04-10T14:31:28;102171.15;;;17.11;44.07
54588;BME280;40484;50.198;19.576;2023-04-10T14:36:30;102168.47;;;17.38;42.99
54588;BME280;40484;50.198;19.576;2023-04-10T14:41:32;102155.98;;;17.79;41.30
54588;BME280;40484;50.198;19.576;2023-04-10T14:46:33;102153.26;;;17.99;40.45
54588;BME280;40484;50.198;19.576;2023-04-10T14:51:35;102140.70;;;17.95;42.98
54588;BME280;40484;50.198;19.576;2023-04-10T14:56:37;102135.88;;;18.12;43.62
54588;BME280;40484;50.198;19.576;2023-04-10T15:01:38;102137.17;;;18.31;42.67
54588;BME280;40484;50.198;19.576;2023-04-10T15:06:40;102140.89;;;18.18;41.40
54588;BME280;40484;50.198;19.576;2023-04-10T15:11:42;102144.21;;;17.79;42.11
54588;BME280;40484;50.198;19.576;2023-04-10T15:16:43;102147.15;;;17.77;43.57
54588;BME280;40484;50.198;19.576;2023-04-10T15:21:45;102145.95;;;18.16;43.84
54588;BME280;40484;50.198;19.576;2023-04-10T15:26:46;102149.23;;;18.42;44.20
54588;BME280;40484;50.198;19.576;2023-04-10T15:31:48;102154.46;;;18.44;44.75
54588;BME280;40484;50.198;19.576;2023-04-10T15:36:50;102154.20;;;18.32;43.91
54588;BME280;40484;50.198;19.576;2023-04-10T15:41:52;102156.38;;;18.03;43.80
54588;BME280;40484;50.198;19.576;2023-04-10T15:47:21;102156.52;;;17.61;42.52
54588;BME280;40484;50.198;19.576;2023-04-10T15:52:22;102146.13;;;17.70;43.04
54588;BME280;40484;50.198;19.576;2023-04-10T15:57:23;102144.35;;;18.08;42.83
54588;BME280;40484;50.198;19.576;2023-04-10T16:02:25;102130.63;;;18.13;41.99
54588;BME280;40484;50.198;19.576;2023-04-10T16:07:27;102125.30;;;18.19;41.93
54588;BME280;40484;50.198;19.576;2023-04-10T16:12:28;102122.09;;;17.84;41.49
54588;BME280;40484;50.198;19.576;2023-04-10T16:17:30;102120.48;;;17.72;41.04
54588;BME280;40484;50.198;19.576;2023-04-10T16:22:31;102114.70;;;17.60;40.65
54588;BME280;40484;50.198;19.576;2023-04-10T16:27:33;102117.12;;;17.70;40.37
54588;BME280;40484;50.198;19.576;2023-04-10T16:32:34;102113.60;;;17.39;40.71
54588;BME280;40484;50.198;19.576;2023-04-10T16:37:36;102121.66;;;17.00;41.97
54588;BME280;40484;50.198;19.576;2023-04-10T16:42:38;102119.73;;;16.56;43.39
54588;BME280;40484;50.198;19.576;2023-04-10T16:47:39;102126.10;;;16.35;44.14
54588;BME280;40484;50.198;19.576;2023-04-10T16:52:43;102122.17;;;16.21;44.61
54588;BME280;40484;50.198;19.576;2023-04-10T16:57:44;102122.16;;;16.24;44.73
54588;BME280;40484;50.198;19.576;2023-04-10T17:02:46;102106.37;;;16.43;44.55
54588;BME280;40484;50.198;19.576;2023-04-10T17:07:49;102106.27;;;16.62;44.41
54588;BME280;40484;50.198;19.576;2023-04-10T17:12:51;102105.16;;;16.75;44.21
54588;BME280;40484;50.198;19.576;2023-04-10T17:17:52;102109.59;;;16.77;44.16
54588;BME280;40484;50.198;19.576;2023-04-10T17:22:54;102121.14;;;16.78;44.07
54588;BME280;40484;50.198;19.576;2023-04-10T17:27:56;102117.66;;;16.51;44.26
54588;BME280;40484;50.198;19.576;2023-04-10T17:33:24;102129.85;;;16.46;44.30
54588;BME280;40484;50.198;19.576;2023-04-10T17:38:26;102126.28;;;16.47;44.22
54588;BME280;40484;50.198;19.576;2023-04-10T17:43:28;102119.82;;;16.38;44.39
54588;BME280;40484;50.198;19.576;2023-04-10T17:48:29;102117.75;;;16.23;44.67
54588;BME280;40484;50.198;19.576;2023-04-10T17:53:31;102112.13;;;16.11;44.83
54588;BME280;40484;50.198;19.576;2023-04-10T17:58:32;102114.25;;;16.00;44.98
54588;BME280;40484;50.198;19.576;2023-04-10T18:03:34;102119.30;;;15.90;44.96
54588;BME280;40484;50.198;19.576;2023-04-10T18:08:35;102125.59;;;15.78;45.23
54588;BME280;40484;50.198;19.576;2023-04-10T18:13:38;102137.96;;;15.76;45.43
54588;BME280;40484;50.198;19.576;2023-04-10T18:18:39;102154.74;;;15.72;45.64
54588;BME280;40484;50.198;19.576;2023-04-10T18:23:42;102171.09;;;15.67;45.82
54588;BME280;40484;50.198;19.576;2023-04-10T18:28:44;102178.14;;;15.25;46.74
54588;BME280;40484;50.198;19.576;2023-04-10T18:33:46;102178.59;;;15.36;46.73
54588;BME280;40484;50.198;19.576;2023-04-10T18:38:48;102177.33;;;15.43;46.87
54588;BME280;40484;50.198;19.576;2023-04-10T18:43:49;102168.96;;;15.52;46.92
54588;BME280;40484;50.198;19.576;2023-04-10T18:48:51;102163.94;;;15.65;46.98
54588;BME280;40484;50.198;19.576;2023-04-10T18:53:54;102167.94;;;15.75;46.93
54588;BME280;40484;50.198;19.576;2023-04-10T18:58:57;102160.61;;;15.84;46.92
54588;BME280;40484;50.198;19.576;2023-04-10T19:03:58;102158.49;;;15.97;46.90
54588;BME280;40484;50.198;19.576;2023-04-10T19:09:00;102153.45;;;15.98;47.02
54588;BME280;40484;50.198;19.576;2023-04-10T19:14:02;102143.59;;;16.03;47.02
54588;BME280;40484;50.198;19.576;2023-04-10T19:19:28;102134.40;;;15.93;47.21
54588;BME280;40484;50.198;19.576;2023-04-10T19:24:31;102124.53;;;15.91;47.17
54588;BME280;40484;50.198;19.576;2023-04-10T19:29:33;102107.15;;;15.92;47.07
54588;BME280;40484;50.198;19.576;2023-04-10T19:34:34;102126.66;;;15.89;47.17
54588;BME280;40484;50.198;19.576;2023-04-10T19:39:36;102120.79;;;15.89;47.10
54588;BME280;40484;50.198;19.576;2023-04-10T19:44:37;102103.79;;;15.81;47.02
54588;BME280;40484;50.198;19.576;2023-04-10T19:49:39;102099.38;;;15.79;47.08
54588;BME280;40484;50.198;19.576;2023-04-10T19:54:40;102080.95;;;15.50;47.75
54588;BME280;40484;50.198;19.576;2023-04-10T19:59:42;102074.44;;;15.29;48.26
54588;BME280;40484;50.198;19.576;2023-04-10T20:04:43;102075.73;;;15.33;48.13
54588;BME280;40484;50.198;19.576;2023-04-10T20:09:45;102070.47;;;15.35;47.72
54588;BME280;40484;50.198;19.576;2023-04-10T20:14:46;102061.66;;;15.17;48.01
54588;BME280;40484;50.198;19.576;2023-04-10T20:19:48;102057.28;;;15.15;47.74
54588;BME280;40484;50.198;19.576;2023-04-10T20:24:49;102045.12;;;14.90;47.41
54588;BME280;40484;50.198;19.576;2023-04-10T20:29:51;102041.13;;;14.78;47.47
54588;BME280;40484;50.198;19.576;2023-04-10T20:34:52;102028.98;;;14.77;47.25
54588;BME280;40484;50.198;19.576;2023-04-10T20:39:54;102025.36;;;14.58;48.02
54588;BME280;40484;50.198;19.576;2023-04-10T20:44:55;102025.38;;;14.53;49.03
54588;BME280;40484;50.198;19.576;2023-04-10T20:49:57;102020.48;;;14.42;49.86
54588;BME280;40484;50.198;19.576;2023-04-10T20:54:58;102012.13;;;14.49;49.73
54588;BME280;40484;50.198;19.576;2023-04-10T21:00:00;102015.33;;;14.61;48.97
54588;BME280;40484;50.198;19.576;2023-04-10T21:05:01;102009.67;;;14.53;48.24
54588;BME280;40484;50.198;19.576;2023-04-10T21:10:28;102005.45;;;14.47;47.73
54588;BME280;40484;50.198;19.576;2023-04-10T21:15:30;102000.84;;;14.44;47.69
54588;BME280;40484;50.198;19.576;2023-04-10T21:20:31;102008.74;;;14.29;47.16
54588;BME280;40484;50.198;19.576;2023-04-10T21:25:37;101999.46;;;14.11;46.98
54588;BME280;40484;50.198;19.576;2023-04-10T21:32:01;101994.39;;;13.99;47.15
54588;BME280;40484;50.198;19.576;2023-04-10T21:37:03;101992.73;;;13.98;46.76
54588;BME280;40484;50.198;19.576;2023-04-10T21:42:04;101991.17;;;13.80;46.65
54588;BME280;40484;50.198;19.576;2023-04-10T21:47:06;101991.11;;;13.66;46.63
54588;BME280;40484;50.198;19.576;2023-04-10T21:52:07;101984.97;;;13.56;46.53
54588;BME280;40484;50.198;19.576;2023-04-10T21:57:10;101985.71;;;13.38;46.54
54588;BME280;40484;50.198;19.576;2023-04-10T22:02:12;101986.48;;;13.30;46.64
54588;BME280;40484;50.198;19.576;2023-04-10T22:07:13;101980.74;;;13.20;46.57
54588;BME280;40484;50.198;19.576;2023-04-10T22:12:15;101980.54;;;13.19;46.61
54588;BME280;40484;50.198;19.576;2023-04-10T22:17:16;101980.28;;;13.15;46.61
54588;BME280;40484;50.198;19.576;2023-04-10T22:22:18;101971.27;;;13.10;46.64
54588;BME280;40484;50.198;19.576;2023-04-10T22:27:19;101965.84;;;13.07;46.72
54588;BME280;40484;50.198;19.576;2023-04-10T22:32:21;101959.98;;;13.09;46.83
54588;BME280;40484;50.198;19.576;2023-04-10T22:37:22;101962.88;;;13.05;46.87
54588;BME280;40484;50.198;19.576;2023-04-10T22:42:24;101955.58;;;13.05;46.89
54588;BME280;40484;50.198;19.576;2023-04-10T22:47:25;101951.57;;;12.98;46.61
54588;BME280;40484;50.198;19.576;2023-04-10T22:52:27;101936.60;;;12.81;46.45
54588;BME280;40484;50.198;19.576;2023-04-10T22:57:28;101942.37;;;12.70;46.66
54588;BME280;40484;50.198;19.576;2023-04-10T23:02:30;101936.70;;;12.69;46.88
54588;BME280;40484;50.198;19.576;2023-04-10T23:07:31;101929.20;;;12.68;46.78
54588;BME280;40484;50.198;19.576;2023-04-10T23:12:32;101923.09;;;12.62;47.08
54588;BME280;40484;50.198;19.576;2023-04-10T23:18:01;101911.91;;;12.71;46.72
54588;BME280;40484;50.198;19.576;2023-04-10T23:23:03;101894.75;;;12.64;46.35
54588;BME280;40484;50.198;19.576;2023-04-10T23:28:04;101879.22;;;12.51;46.25
54588;BME280;40484;50.198;19.576;2023-04-10T23:33:06;101875.53;;;12.38;46.42
54588;BME280;40484;50.198;19.576;2023-04-10T23:38:07;101866.60;;;12.18;46.31
54588;BME280;40484;50.198;19.576;2023-04-10T23:43:09;101859.36;;;12.03;46.16
54588;BME280;40484;50.198;19.576;2023-04-10T23:48:11;101849.82;;;11.89;46.09
54588;BME280;40484;50.198;19.576;2023-04-10T23:53:12;101843.30;;;11.65;46.31
54588;BME280;40484;50.198;19.576;2023-04-10T23:58:13;101836.88;;;11.70;46.43
